Lubbock, Texas
Current Conditions -  °F | °C
As of 9:53 PM on Tuesday 25 Nov 2014 (Local Time) from KLBB Reporting Station
Clear Clear  
Wind Chill:   Ceiling: Unl
Heat Index:   Visibility: 10mi
Dew Point: -11°   Wind: 12mph
Humidity: 27%   Direction: 250°WSW
Pressure: 30.04"   Gusts: NA
Location:  33.59°N, 101.85°W
Report Text: KLBB 260353Z 25010KT 10SM CLR 07/M11 A3004 RMK AO2 SLP165 T00671111
Loading
Personal Weather Stations






























Interactive Weather Map New forecast layout! Learn more

10-Day Weather Forecast

Advertisements
Track Severe Weather on mobile